createdAt,value
2023-05-22T00:01:49.470Z,21.10
2023-05-22T00:04:21.506Z,20.98
2023-05-22T00:06:49.945Z,20.94
2023-05-22T00:09:17.469Z,20.88
2023-05-22T00:11:45.601Z,20.89
2023-05-22T00:14:16.202Z,20.82
2023-05-22T00:16:44.009Z,20.94
2023-05-22T00:19:16.797Z,20.95
2023-05-22T00:21:44.699Z,20.98
2023-05-22T00:24:12.440Z,20.97
2023-05-22T00:26:39.895Z,21.03
2023-05-22T00:29:07.354Z,21.05
2023-05-22T00:31:34.830Z,21.04
2023-05-22T00:34:02.607Z,21.14
2023-05-22T00:36:30.029Z,21.17
2023-05-22T00:38:57.414Z,21.11
2023-05-22T00:41:24.927Z,21.16
2023-05-22T00:43:52.354Z,21.16
2023-05-22T00:46:25.052Z,21.17
2023-05-22T00:48:53.222Z,21.15
2023-05-22T00:51:22.396Z,21.22
2023-05-22T00:53:50.569Z,21.26
2023-05-22T00:56:19.479Z,21.24
2023-05-22T00:58:46.968Z,21.24
2023-05-22T01:01:15.641Z,21.25
2023-05-22T01:03:46.908Z,21.18
2023-05-22T01:06:15.986Z,21.22
2023-05-22T01:08:45.512Z,21.15
2023-05-22T01:11:35.846Z,21.22
2023-05-22T01:14:11.756Z,21.19
2023-05-22T01:17:00.185Z,21.20
2023-05-22T01:20:07.067Z,21.20
2023-05-22T01:23:16.306Z,21.18
2023-05-22T01:25:53.084Z,21.18
2023-05-22T01:28:45.390Z,21.18
2023-05-22T01:31:17.393Z,21.19
2023-05-22T01:34:00.837Z,21.18
2023-05-22T01:36:35.039Z,21.11
2023-05-22T01:39:06.209Z,21.08
2023-05-22T01:41:34.347Z,21.14
2023-05-22T01:44:02.303Z,21.12
2023-05-22T01:46:31.487Z,21.16
2023-05-22T01:48:59.743Z,21.13
2023-05-22T01:51:42.123Z,21.10
2023-05-22T01:54:37.196Z,21.06
2023-05-22T01:57:12.973Z,21.04
2023-05-22T01:59:48.615Z,20.99
2023-05-22T02:02:20.027Z,21.02
2023-05-22T02:04:55.880Z,21.01
2023-05-22T02:07:27.163Z,20.98
2023-05-22T02:09:57.772Z,21.01
2023-05-22T02:12:25.953Z,20.98
2023-05-22T02:14:53.958Z,20.94
2023-05-22T02:17:22.198Z,20.94
2023-05-22T02:19:49.688Z,20.92
2023-05-22T02:22:17.190Z,20.85
2023-05-22T02:24:48.126Z,20.81
2023-05-22T02:27:17.449Z,20.83
2023-05-22T02:29:44.862Z,20.78
2023-05-22T02:32:12.314Z,20.70
2023-05-22T02:34:39.618Z,20.65
2023-05-22T02:37:16.022Z,20.53
2023-05-22T02:39:43.580Z,20.41
2023-05-22T02:42:13.307Z,20.35
2023-05-22T02:44:41.014Z,20.19
2023-05-22T02:47:08.551Z,20.16
2023-05-22T02:49:36.022Z,20.13
2023-05-22T02:52:04.232Z,20.19
2023-05-22T02:54:31.680Z,20.16
2023-05-22T02:57:03.204Z,20.10
2023-05-22T02:59:31.757Z,20.05
2023-05-22T03:01:59.226Z,20.08
2023-05-22T03:04:26.755Z,19.94
2023-05-22T03:06:54.798Z,19.84
2023-05-22T03:09:22.260Z,19.78
2023-05-22T03:11:51.547Z,19.68
2023-05-22T03:14:19.144Z,19.59
2023-05-22T03:16:49.018Z,19.63
2023-05-22T03:19:17.434Z,19.64
2023-05-22T03:21:44.904Z,19.61
2023-05-22T03:24:13.439Z,19.73
2023-05-22T03:26:42.039Z,19.75
2023-05-22T03:29:14.215Z,19.69
2023-05-22T03:31:42.484Z,19.57
2023-05-22T03:34:13.620Z,19.39
2023-05-22T03:36:45.140Z,19.41
2023-05-22T03:39:18.156Z,19.36
2023-05-22T03:41:54.890Z,19.28
2023-05-22T03:44:24.577Z,19.24
2023-05-22T03:46:53.738Z,19.19
2023-05-22T03:49:21.835Z,19.09
2023-05-22T03:51:49.199Z,19.10
2023-05-22T03:54:17.259Z,19.20
2023-05-22T03:56:44.695Z,19.12
2023-05-22T03:59:12.191Z,19.20
2023-05-22T04:01:40.401Z,19.35
2023-05-22T04:04:09.685Z,19.24
2023-05-22T04:06:43.175Z,19.21
2023-05-22T04:09:13.755Z,19.19
2023-05-22T04:11:42.345Z,19.27
2023-05-22T04:14:10.056Z,19.23
2023-05-22T04:16:37.521Z,19.32
2023-05-22T04:19:05.890Z,19.28
2023-05-22T04:21:34.631Z,19.35
2023-05-22T04:24:07.286Z,19.20
2023-05-22T04:26:36.132Z,19.16
2023-05-22T04:29:03.946Z,19.21
2023-05-22T04:31:32.532Z,19.23
2023-05-22T04:34:00.350Z,19.27
2023-05-22T04:36:28.068Z,19.26
2023-05-22T04:38:55.676Z,19.24
2023-05-22T04:41:26.523Z,19.27
2023-05-22T04:43:54.889Z,19.32
2023-05-22T04:46:22.876Z,19.30
2023-05-22T04:48:51.289Z,19.34
2023-05-22T04:51:18.752Z,19.43
2023-05-22T04:53:47.326Z,19.43
2023-05-22T04:56:18.646Z,19.47
2023-05-22T04:58:53.955Z,19.61
2023-05-22T05:01:23.081Z,19.83
2023-05-22T05:03:51.115Z,19.92
2023-05-22T05:06:21.659Z,19.98
2023-05-22T05:08:50.139Z,20.01
2023-05-22T05:11:17.628Z,20.10
2023-05-22T05:13:45.090Z,20.12
2023-05-22T05:16:12.978Z,20.20
2023-05-22T05:18:40.992Z,20.16
2023-05-22T05:21:08.900Z,20.34
2023-05-22T05:23:36.267Z,20.32
2023-05-22T05:26:04.055Z,20.36
2023-05-22T05:28:31.597Z,20.38
2023-05-22T05:31:02.044Z,20.33
2023-05-22T05:33:47.807Z,20.38
2023-05-22T05:36:27.390Z,20.46
2023-05-22T05:38:56.718Z,20.61
2023-05-22T05:41:24.712Z,20.79
2023-05-22T05:44:00.190Z,20.94
2023-05-22T05:46:35.864Z,21.10
2023-05-22T05:49:12.323Z,21.14
2023-05-22T05:51:41.932Z,21.08
2023-05-22T05:54:11.220Z,21.13
2023-05-22T05:56:39.924Z,21.13
2023-05-22T05:59:07.344Z,21.07
2023-05-22T06:01:38.848Z,21.13
2023-05-22T06:04:12.776Z,21.11
2023-05-22T06:06:42.417Z,20.99
2023-05-22T06:09:10.335Z,20.97
2023-05-22T06:12:01.885Z,20.94
2023-05-22T06:14:30.837Z,20.93
2023-05-22T06:16:59.110Z,20.89
2023-05-22T06:19:27.334Z,20.91
2023-05-22T06:21:55.191Z,20.88
2023-05-22T06:24:23.152Z,20.88
2023-05-22T06:26:51.021Z,20.99
2023-05-22T06:29:18.664Z,21.01
2023-05-22T06:31:47.650Z,21.10
2023-05-22T06:34:18.385Z,21.09
2023-05-22T06:36:46.084Z,21.08
2023-05-22T06:39:14.224Z,21.21
2023-05-22T06:42:00.214Z,21.32
2023-05-22T06:44:44.594Z,21.51
2023-05-22T06:47:11.974Z,21.61
2023-05-22T06:49:40.347Z,21.70
2023-05-22T06:52:07.880Z,21.77
2023-05-22T06:54:35.392Z,21.83
2023-05-22T06:57:03.859Z,21.88
2023-05-22T06:59:32.181Z,21.96
2023-05-22T07:02:05.906Z,22.02
2023-05-22T07:04:49.196Z,22.04
2023-05-22T07:07:23.831Z,22.13
2023-05-22T07:09:51.467Z,22.28
2023-05-22T07:12:20.389Z,22.40
2023-05-22T07:14:47.779Z,22.51
2023-05-22T07:17:15.096Z,22.61
2023-05-22T07:19:45.163Z,22.58
2023-05-22T07:22:12.845Z,22.47
2023-05-22T07:24:41.074Z,22.73
2023-05-22T07:27:09.305Z,22.69
2023-05-22T07:29:38.134Z,22.60
2023-05-22T07:32:07.278Z,22.66
2023-05-22T07:34:35.983Z,22.70
2023-05-22T07:37:09.163Z,22.97
2023-05-22T07:39:36.734Z,22.99
2023-05-22T07:42:06.235Z,23.08
2023-05-22T07:44:38.033Z,23.21
2023-05-22T07:47:06.021Z,23.28
2023-05-22T07:49:34.971Z,23.55
2023-05-22T07:52:02.606Z,23.58
2023-05-22T07:54:30.130Z,23.53
2023-05-22T07:56:58.131Z,23.58
2023-05-22T07:59:30.595Z,23.69
2023-05-22T08:01:59.805Z,23.88
2023-05-22T08:04:27.619Z,23.89
2023-05-22T08:06:55.654Z,23.99
2023-05-22T08:09:23.416Z,24.10
2023-05-22T08:11:50.888Z,24.39
2023-05-22T08:14:18.268Z,24.71
2023-05-22T08:16:45.866Z,24.94
2023-05-22T08:19:13.452Z,24.96
2023-05-22T08:21:40.937Z,24.77
2023-05-22T08:24:08.729Z,24.82
2023-05-22T08:26:36.806Z,24.88
2023-05-22T08:29:04.283Z,24.76
2023-05-22T08:31:34.287Z,24.78
2023-05-22T08:34:06.396Z,24.80
2023-05-22T08:36:34.211Z,24.83
2023-05-22T08:39:02.147Z,25.13
2023-05-22T08:41:30.344Z,25.07
2023-05-22T08:43:57.954Z,25.05
2023-05-22T08:46:29.434Z,25.04
2023-05-22T08:48:58.267Z,25.18
2023-05-22T08:51:31.518Z,25.01
2023-05-22T08:54:00.332Z,25.16
2023-05-22T08:56:29.683Z,25.27
2023-05-22T08:58:59.876Z,25.40
2023-05-22T09:01:29.394Z,25.29
2023-05-22T09:04:01.908Z,25.22
2023-05-22T09:06:30.064Z,25.39
2023-05-22T09:09:01.557Z,25.21
2023-05-22T09:11:29.064Z,25.46
2023-05-22T09:14:08.056Z,25.64
2023-05-22T09:16:47.871Z,25.60
2023-05-22T09:19:16.077Z,25.48
2023-05-22T09:21:44.598Z,25.18
2023-05-22T09:24:12.404Z,25.53
2023-05-22T09:26:40.488Z,25.75
2023-05-22T09:29:08.617Z,25.99
2023-05-22T09:31:44.348Z,25.93
2023-05-22T09:34:17.612Z,26.11
2023-05-22T09:36:46.461Z,26.37
2023-05-22T09:39:14.169Z,26.33
2023-05-22T09:41:41.538Z,25.78
2023-05-22T09:44:13.886Z,26.06
2023-05-22T09:46:46.172Z,26.34
2023-05-22T09:49:16.428Z,26.50
2023-05-22T09:51:47.864Z,26.21
2023-05-22T09:54:17.474Z,26.34
2023-05-22T09:56:50.970Z,26.19
2023-05-22T09:59:26.683Z,26.22
2023-05-22T10:01:54.673Z,26.19
2023-05-22T10:04:23.093Z,26.36
2023-05-22T10:06:52.738Z,25.88
2023-05-22T10:09:31.090Z,25.94
2023-05-22T10:12:04.365Z,26.09
2023-05-22T10:14:34.588Z,26.12
2023-05-22T10:17:04.813Z,26.22
2023-05-22T10:19:33.666Z,26.17
2023-05-22T10:22:01.700Z,26.01
2023-05-22T10:24:30.073Z,26.08
2023-05-22T10:26:57.928Z,26.31
2023-05-22T10:29:33.355Z,26.28
2023-05-22T10:32:18.550Z,26.03
2023-05-22T10:35:02.182Z,25.95
2023-05-22T10:37:52.241Z,26.11
2023-05-22T10:40:28.850Z,26.03
2023-05-22T10:43:00.917Z,25.97
2023-05-22T10:45:29.389Z,26.09
2023-05-22T10:48:06.874Z,26.10
2023-05-22T10:50:35.695Z,26.14
2023-05-22T10:53:24.154Z,26.26
2023-05-22T10:56:02.548Z,26.34
2023-05-22T10:58:32.047Z,26.61
2023-05-22T11:01:09.798Z,26.38
2023-05-22T11:04:13.039Z,26.28
2023-05-22T11:07:06.771Z,26.16
2023-05-22T11:09:43.282Z,26.42
2023-05-22T11:12:24.948Z,26.23
2023-05-22T11:14:57.292Z,26.14
2023-05-22T11:17:27.775Z,26.16
2023-05-22T11:20:06.808Z,26.19
2023-05-22T11:22:41.412Z,26.29
2023-05-22T11:25:17.920Z,26.32
2023-05-22T11:27:47.310Z,26.33
2023-05-22T11:30:16.326Z,26.35
2023-05-22T11:32:45.866Z,26.28
2023-05-22T11:35:18.444Z,26.33
2023-05-22T11:37:46.692Z,26.39
2023-05-22T11:40:18.891Z,26.15
2023-05-22T11:42:46.772Z,26.15
2023-05-22T11:45:15.228Z,26.22
2023-05-22T11:47:43.684Z,26.28
2023-05-22T11:50:22.550Z,26.23
2023-05-22T11:52:59.391Z,26.53
2023-05-22T11:55:26.858Z,26.78
2023-05-22T11:57:55.574Z,26.72
2023-05-22T12:00:22.990Z,26.51
2023-05-22T12:02:50.691Z,26.56
2023-05-22T12:05:21.425Z,26.65
2023-05-22T12:07:48.878Z,26.71
2023-05-22T12:10:16.521Z,26.46
2023-05-22T12:12:44.243Z,26.37
2023-05-22T12:15:12.003Z,26.41
2023-05-22T12:17:40.073Z,26.37
2023-05-22T12:20:07.968Z,26.40
2023-05-22T12:22:41.087Z,26.50
2023-05-22T12:25:17.637Z,26.53
2023-05-22T12:27:46.075Z,26.71
2023-05-22T12:30:14.678Z,26.80
2023-05-22T12:32:47.524Z,26.79
2023-05-22T12:35:16.722Z,26.86
2023-05-22T12:37:51.761Z,26.55
2023-05-22T12:40:19.450Z,26.40
2023-05-22T12:42:47.958Z,26.21
2023-05-22T12:45:17.726Z,26.33
2023-05-22T12:47:45.276Z,26.36
2023-05-22T12:50:12.845Z,26.35
2023-05-22T12:52:40.368Z,26.48
2023-05-22T12:55:09.562Z,26.37
2023-05-22T12:57:37.000Z,26.42
2023-05-22T13:00:06.021Z,26.20
2023-05-22T13:02:34.068Z,26.32
2023-05-22T13:05:01.478Z,26.29
2023-05-22T13:07:29.024Z,26.23
2023-05-22T13:09:56.446Z,26.36
2023-05-22T13:12:23.912Z,26.33
2023-05-22T13:14:51.253Z,26.40
2023-05-22T13:17:18.693Z,26.23
2023-05-22T13:19:46.007Z,26.31
2023-05-22T13:22:14.836Z,26.44
2023-05-22T13:24:42.168Z,26.36
2023-05-22T13:27:09.796Z,26.32
2023-05-22T13:29:37.195Z,26.34
2023-05-22T13:32:06.957Z,26.47
2023-05-22T13:34:34.585Z,26.44
2023-05-22T13:37:02.422Z,26.45
2023-05-22T13:39:33.512Z,26.52
2023-05-22T13:42:01.472Z,26.52
2023-05-22T13:44:28.820Z,26.92
2023-05-22T13:46:56.354Z,26.68
2023-05-22T13:49:23.716Z,26.52
2023-05-22T13:51:51.080Z,26.69
2023-05-22T13:54:18.538Z,26.88
2023-05-22T13:56:46.018Z,26.92
2023-05-22T13:59:13.373Z,26.55
2023-05-22T14:01:41.623Z,26.47
2023-05-22T14:04:09.068Z,26.41
2023-05-22T14:06:36.680Z,26.36
2023-05-22T14:09:07.938Z,26.15
2023-05-22T14:11:35.708Z,26.11
2023-05-22T14:14:03.252Z,26.07
2023-05-22T14:16:30.744Z,26.06
2023-05-22T14:19:00.317Z,25.94
2023-05-22T14:21:27.885Z,25.93
2023-05-22T14:23:55.347Z,25.95
2023-05-22T14:26:24.268Z,25.91
2023-05-22T14:28:52.937Z,25.95
2023-05-22T14:31:21.318Z,25.82
2023-05-22T14:33:49.263Z,25.89
2023-05-22T14:36:17.885Z,25.89
2023-05-22T14:38:45.310Z,25.88
2023-05-22T14:41:13.038Z,25.90
2023-05-22T14:43:40.493Z,25.94
2023-05-22T14:46:07.933Z,25.93
2023-05-22T14:48:35.402Z,25.90
2023-05-22T14:51:02.718Z,25.75
2023-05-22T14:53:30.327Z,25.75
2023-05-22T14:55:57.759Z,25.71
2023-05-22T14:58:25.129Z,25.69
2023-05-22T15:00:52.609Z,25.72
2023-05-22T15:03:21.542Z,25.77
2023-05-22T15:05:49.069Z,25.87
2023-05-22T15:08:19.071Z,25.82
2023-05-22T15:10:46.679Z,25.77
2023-05-22T15:13:14.597Z,25.72
2023-05-22T15:15:42.253Z,25.63
2023-05-22T15:18:09.816Z,25.57
2023-05-22T15:20:37.203Z,25.59
2023-05-22T15:23:05.911Z,25.62
2023-05-22T15:25:36.458Z,25.64
2023-05-22T15:28:06.376Z,25.62
2023-05-22T15:30:39.253Z,25.64
2023-05-22T15:33:07.159Z,25.61
2023-05-22T15:35:34.618Z,25.58
2023-05-22T15:38:03.143Z,25.77
2023-05-22T15:40:31.046Z,25.64
2023-05-22T15:43:01.658Z,25.69
2023-05-22T15:45:29.154Z,25.64
2023-05-22T15:47:56.892Z,25.51
2023-05-22T15:50:24.354Z,25.46
2023-05-22T15:52:52.063Z,25.50
2023-05-22T15:55:19.564Z,25.52
2023-05-22T15:57:46.969Z,25.49
2023-05-22T16:00:16.075Z,25.51
2023-05-22T16:02:45.236Z,25.38
2023-05-22T16:05:12.769Z,25.39
2023-05-22T16:07:40.173Z,25.35
2023-05-22T16:10:08.149Z,25.32
2023-05-22T16:12:35.726Z,25.30
2023-05-22T16:15:06.540Z,25.30
2023-05-22T16:17:34.496Z,25.25
2023-05-22T16:20:02.309Z,25.26
2023-05-22T16:22:44.169Z,25.20
2023-05-22T16:25:17.006Z,25.36
2023-05-22T16:27:44.535Z,25.39
2023-05-22T16:30:12.342Z,25.38
2023-05-22T16:32:40.094Z,25.40
2023-05-22T16:35:07.827Z,25.38
2023-05-22T16:37:36.079Z,25.36
2023-05-22T16:40:04.923Z,25.32
2023-05-22T16:42:32.357Z,25.32
2023-05-22T16:44:59.817Z,25.30
2023-05-22T16:47:27.280Z,25.25
2023-05-22T16:49:54.663Z,25.18
2023-05-22T16:52:23.617Z,25.24
2023-05-22T16:54:51.028Z,25.28
2023-05-22T16:57:18.742Z,25.23
2023-05-22T16:59:46.287Z,25.19
2023-05-22T17:02:13.940Z,25.21
2023-05-22T17:04:41.326Z,25.26
2023-05-22T17:07:08.766Z,25.29
2023-05-22T17:09:36.263Z,25.24
2023-05-22T17:12:03.911Z,25.18
2023-05-22T17:14:33.505Z,25.15
2023-05-22T17:17:00.956Z,25.18
2023-05-22T17:19:28.467Z,25.11
2023-05-22T17:21:56.755Z,25.17
2023-05-22T17:24:24.682Z,25.10
2023-05-22T17:26:52.506Z,25.03
2023-05-22T17:29:19.951Z,25.06
2023-05-22T17:31:47.800Z,25.06
2023-05-22T17:34:15.228Z,25.04
2023-05-22T17:36:44.763Z,25.09
2023-05-22T17:39:12.671Z,25.02
2023-05-22T17:41:40.239Z,25.04
2023-05-22T17:44:07.661Z,25.01
2023-05-22T17:46:35.485Z,24.91
2023-05-22T17:49:02.993Z,24.91
2023-05-22T17:51:30.726Z,24.90
2023-05-22T17:53:59.094Z,24.84
2023-05-22T17:56:26.738Z,24.83
2023-05-22T17:58:54.179Z,24.80
2023-05-22T18:01:21.593Z,24.75
2023-05-22T18:03:49.270Z,24.67
2023-05-22T18:06:16.843Z,24.64
2023-05-22T18:08:44.350Z,24.65
2023-05-22T18:11:11.771Z,24.67
2023-05-22T18:13:41.810Z,24.60
2023-05-22T18:16:09.269Z,24.51
2023-05-22T18:18:36.717Z,24.41
2023-05-22T18:21:04.376Z,24.41
2023-05-22T18:23:31.810Z,24.32
2023-05-22T18:25:59.229Z,24.30
2023-05-22T18:28:27.378Z,24.22
2023-05-22T18:30:54.989Z,24.24
2023-05-22T18:33:24.720Z,24.17
2023-05-22T18:35:52.661Z,24.18
2023-05-22T18:38:22.121Z,24.22
2023-05-22T18:40:49.720Z,24.21
2023-05-22T18:43:17.184Z,24.06
2023-05-22T18:45:44.579Z,24.14
2023-05-22T18:48:12.052Z,24.10
2023-05-22T18:50:39.834Z,23.99
2023-05-22T18:53:07.346Z,24.05
2023-05-22T18:55:34.793Z,23.97
2023-05-22T18:58:02.322Z,23.95
2023-05-22T19:00:30.772Z,23.85
2023-05-22T19:02:58.268Z,23.84
2023-05-22T19:05:26.264Z,23.77
2023-05-22T19:07:53.851Z,23.75
2023-05-22T19:10:21.283Z,23.68
2023-05-22T19:12:48.692Z,23.65
2023-05-22T19:15:16.307Z,23.73
2023-05-22T19:17:43.837Z,23.67
2023-05-22T19:20:12.260Z,23.67
2023-05-22T19:22:39.893Z,23.63
2023-05-22T19:25:08.020Z,23.60
2023-05-22T19:27:37.311Z,23.61
2023-05-22T19:30:10.563Z,23.51
2023-05-22T19:32:37.948Z,23.46
2023-05-22T19:35:05.839Z,23.43
2023-05-22T19:37:33.302Z,23.40
2023-05-22T19:40:01.144Z,23.36
2023-05-22T19:42:28.898Z,23.32
2023-05-22T19:44:56.400Z,23.24
2023-05-22T19:47:23.916Z,23.13
2023-05-22T19:49:51.355Z,23.07
2023-05-22T19:52:18.885Z,22.98
2023-05-22T19:54:46.490Z,22.93
2023-05-22T19:57:13.951Z,22.91
2023-05-22T19:59:41.610Z,22.94
2023-05-22T20:02:09.207Z,22.87
2023-05-22T20:04:39.042Z,22.89
2023-05-22T20:07:07.329Z,22.85
2023-05-22T20:09:34.939Z,22.74
2023-05-22T20:12:02.501Z,22.62
2023-05-22T20:14:30.138Z,22.56
2023-05-22T20:16:59.180Z,22.54
2023-05-22T20:19:27.665Z,22.48
2023-05-22T20:21:56.414Z,22.39
2023-05-22T20:24:25.333Z,22.26
2023-05-22T20:26:53.032Z,22.38
2023-05-22T20:29:20.620Z,22.28
2023-05-22T20:31:48.364Z,22.22
2023-05-22T20:34:15.805Z,22.31
2023-05-22T20:36:44.946Z,22.25
2023-05-22T20:39:12.529Z,22.23
2023-05-22T20:41:40.013Z,22.17
2023-05-22T20:44:07.839Z,22.16
2023-05-22T20:46:35.582Z,22.03
2023-05-22T20:49:04.865Z,21.91
2023-05-22T20:51:32.721Z,21.95
2023-05-22T20:54:00.885Z,21.87
2023-05-22T20:56:28.984Z,21.89
2023-05-22T20:58:59.428Z,21.84
2023-05-22T21:01:29.512Z,21.74
2023-05-22T21:03:57.027Z,21.66
2023-05-22T21:06:24.505Z,21.65
2023-05-22T21:08:53.995Z,21.60
2023-05-22T21:11:21.745Z,21.57
2023-05-22T21:13:49.139Z,21.50
2023-05-22T21:16:16.667Z,21.42
2023-05-22T21:18:44.199Z,21.53
2023-05-22T21:21:11.636Z,21.36
2023-05-22T21:23:39.050Z,21.22
2023-05-22T21:26:06.436Z,21.18
2023-05-22T21:28:33.979Z,21.13
2023-05-22T21:31:01.452Z,21.05
2023-05-22T21:33:28.834Z,21.10
2023-05-22T21:35:56.478Z,21.06
2023-05-22T21:38:23.839Z,21.03
2023-05-22T21:40:51.230Z,21.04
2023-05-22T21:43:18.652Z,21.01
2023-05-22T21:45:46.082Z,20.96
2023-05-22T21:48:13.437Z,20.97
2023-05-22T21:50:41.009Z,21.05
2023-05-22T21:53:08.619Z,20.97
2023-05-22T21:55:36.274Z,20.91
2023-05-22T21:58:03.700Z,20.87
2023-05-22T22:00:31.124Z,20.89
2023-05-22T22:02:58.612Z,20.89
2023-05-22T22:05:27.598Z,20.86
2023-05-22T22:07:55.056Z,20.85
2023-05-22T22:10:22.763Z,20.85
2023-05-22T22:12:50.140Z,20.74
2023-05-22T22:15:17.559Z,20.53
2023-05-22T22:17:45.306Z,20.45
2023-05-22T22:20:12.855Z,20.53
2023-05-22T22:22:40.805Z,20.56
2023-05-22T22:25:08.529Z,20.65
2023-05-22T22:27:36.902Z,20.65
2023-05-22T22:30:04.937Z,20.66
2023-05-22T22:32:32.365Z,20.62
2023-05-22T22:34:59.862Z,20.39
2023-05-22T22:37:27.256Z,20.36
2023-05-22T22:39:54.613Z,20.31
2023-05-22T22:42:22.003Z,20.28
2023-05-22T22:44:49.406Z,20.18
2023-05-22T22:47:17.333Z,20.25
2023-05-22T22:49:44.733Z,20.22
2023-05-22T22:52:12.098Z,20.14
2023-05-22T22:54:39.559Z,20.16
2023-05-22T22:57:07.824Z,20.14
2023-05-22T22:59:37.909Z,20.16
2023-05-22T23:02:05.622Z,20.15
2023-05-22T23:04:33.255Z,20.09
2023-05-22T23:07:00.775Z,20.03
2023-05-22T23:09:28.237Z,19.87
2023-05-22T23:11:55.704Z,19.85
2023-05-22T23:14:24.802Z,19.91
2023-05-22T23:16:52.195Z,19.91
2023-05-22T23:19:19.696Z,19.86
2023-05-22T23:21:47.083Z,19.80
2023-05-22T23:24:14.555Z,19.80
2023-05-22T23:26:41.936Z,19.80
2023-05-22T23:29:09.326Z,19.81
2023-05-22T23:31:37.121Z,19.73
2023-05-22T23:34:04.517Z,19.74
2023-05-22T23:36:32.656Z,19.73
2023-05-22T23:39:00.189Z,19.71
2023-05-22T23:41:27.590Z,19.66
2023-05-22T23:43:54.959Z,19.71
2023-05-22T23:46:24.420Z,19.67
2023-05-22T23:48:52.162Z,19.62
2023-05-22T23:51:19.818Z,19.51
2023-05-22T23:53:47.124Z,19.53
2023-05-22T23:56:14.474Z,19.42
2023-05-22T23:58:41.851Z,19.36
